KLAN

Capital Region International Airport

Lansing, Michigan, USA
METAR KLAN 200653Z 20015KT 6SM RA BR OVC080 14/13 A2991 RMK AO2 PK WND 21029/0612 SLP130 P0014 T01390133
Observed Flight Rules
Feb-20 @ 06:53 UTC (43 minutes ago) Visual Flight Rules
Wind Visibility Clouds Conditions
200° at 15 knots 6 miles
  • Overcast at 8,000' AGL
  • Rain
  • Mist
Temperatures Readings Precipitation
Current 14°C / 57°F
Dewpoint 13°C / 55°F
Humidity 94%
Altimeter 29.91" Hg
Pressure 1013 hPa
Elevation 264
Current Rain 0.14
METAR KLAN 200653Z 20015KT 6SM RA BR OVC080 14/13 A2991 RMK AO2 PK WND 21029/0612 SLP130 P0014 T01390133
Observed Flight Rules
Feb-20 @ 06:53 UTC
(43 minutes ago)
VFR
Wind Visibility
200° at 15 knots 6 miles
Clouds
  • Overcast at 8,000' AGL
Conditions
  • Rain
  • Mist
Temperature Dewpoint
14°C / 57°F 13°C / 55°F
Humidity Altimeter Pressure
94% 29.91" Hg 1013 hPa
Current Rain
0.14